createdAt,value
2018-09-24T00:02:45.774Z,95417.8
2018-09-24T00:07:41.728Z,95458.8
2018-09-24T00:12:37.772Z,95438.3
2018-09-24T00:17:33.218Z,95437.7
2018-09-24T00:22:28.898Z,95418.4
2018-09-24T00:27:24.872Z,95423.2
2018-09-24T00:32:20.804Z,95514.1
2018-09-24T00:37:16.820Z,95411.1
2018-09-24T00:42:12.418Z,95409.5
2018-09-24T00:47:08.076Z,95394.4
2018-09-24T00:52:03.622Z,95361
2018-09-24T00:57:00.053Z,95380.6
2018-09-24T01:01:55.868Z,95392.4
2018-09-24T01:06:51.833Z,95336.2
2018-09-24T01:11:47.631Z,95363.5
2018-09-24T01:16:43.172Z,95379.2
2018-09-24T01:21:38.968Z,95467.9
2018-09-24T01:26:34.950Z,95361.1
2018-09-24T01:31:30.975Z,95368.2
2018-09-24T01:36:26.847Z,95355.9
2018-09-24T01:41:22.739Z,95441.6
2018-09-24T01:46:18.614Z,95332.4
2018-09-24T01:51:14.353Z,95331.1
2018-09-24T01:56:10.005Z,95330.4
2018-09-24T02:01:06.130Z,95444.2
2018-09-24T02:06:02.172Z,95327.8
2018-09-24T02:10:58.091Z,95332.7
2018-09-24T02:15:54.565Z,95427.8
2018-09-24T02:20:50.190Z,95315.3
2018-09-24T02:25:46.175Z,95207.3
2018-09-24T02:30:41.892Z,95306.8
2018-09-24T02:35:37.430Z,95269.2
2018-09-24T02:40:33.301Z,95416.8
2018-09-24T02:45:28.894Z,95288.6
2018-09-24T02:50:24.005Z,95402.1
2018-09-24T02:55:20.081Z,95410.9
2018-09-24T03:00:16.029Z,95484.6
2018-09-24T03:05:12.547Z,95283.7
2018-09-24T03:10:08.224Z,95430.7
2018-09-24T03:15:04.092Z,95385.4
2018-09-24T03:20:00.084Z,95386.9
2018-09-24T03:24:55.729Z,95283.8
2018-09-24T03:29:51.550Z,95516.5
2018-09-24T03:34:47.594Z,95381.5
2018-09-24T03:39:43.180Z,95470.3
2018-09-24T03:44:38.665Z,95376.4
2018-09-24T03:49:34.471Z,95381
2018-09-24T03:54:30.473Z,95333.4
2018-09-24T03:59:26.348Z,95453.6
2018-09-24T04:04:22.433Z,95358.5
2018-09-24T04:09:18.028Z,95483.2
2018-09-24T04:14:13.724Z,95363.2
2018-09-24T04:19:09.277Z,95255.7
2018-09-24T04:24:05.254Z,95251.5
2018-09-24T04:29:01.088Z,95356.4
2018-09-24T04:33:56.744Z,95250
2018-09-24T04:38:52.540Z,95356.9
2018-09-24T04:43:48.398Z,95249.1
2018-09-24T04:48:44.014Z,95250.3
2018-09-24T04:53:40.126Z,95219.9
2018-09-24T04:58:35.450Z,95139.8
2018-09-24T05:03:31.244Z,95250.1
2018-09-24T05:08:26.900Z,95247.6
2018-09-24T05:13:22.299Z,95179.9
2018-09-24T05:18:18.010Z,95259.5
2018-09-24T05:23:13.742Z,95257.1
2018-09-24T05:28:09.670Z,95256.7
2018-09-24T05:33:05.357Z,95360.1
2018-09-24T05:38:01.012Z,95353.2
2018-09-24T05:42:56.625Z,95348.3
2018-09-24T05:47:53.175Z,95352.1
2018-09-24T05:52:48.163Z,95232.4
2018-09-24T05:57:43.977Z,95281.7
2018-09-24T06:02:40.197Z,95247.8
2018-09-24T06:07:35.788Z,95268.1
2018-09-24T06:12:31.709Z,95237.1
2018-09-24T06:17:27.505Z,95346.8
2018-09-24T06:22:23.433Z,95353.9
2018-09-24T06:27:19.956Z,95356.1
2018-09-24T06:32:15.676Z,95242.6
2018-09-24T06:37:11.698Z,95249.5
2018-09-24T06:42:06.849Z,95250.8
2018-09-24T06:47:02.950Z,95365.2
2018-09-24T06:51:59.006Z,95360.3
2018-09-24T06:56:54.960Z,95257.9
2018-09-24T07:01:51.388Z,95346.6
2018-09-24T07:06:47.081Z,95235.4
2018-09-24T07:11:42.487Z,95231.7
2018-09-24T07:16:38.484Z,95229.1
2018-09-24T07:21:34.422Z,95233.4
2018-09-24T07:26:30.196Z,95221.6
2018-09-24T07:31:26.042Z,95326.3
2018-09-24T07:36:21.976Z,95071
2018-09-24T07:41:18.289Z,95222.5
2018-09-24T07:46:14.268Z,95322.5
2018-09-24T07:51:09.880Z,95212.9
2018-09-24T07:56:05.778Z,95156.8
2018-09-24T08:01:02.301Z,95205
2018-09-24T08:05:58.125Z,95203.5
2018-09-24T08:10:53.996Z,95202.7
2018-09-24T08:15:49.958Z,95196.7
2018-09-24T08:20:46.195Z,95303.9
2018-09-24T08:25:42.400Z,95091.5
2018-09-24T08:30:38.542Z,95201.7
2018-09-24T08:35:34.581Z,95292.1
2018-09-24T08:40:30.448Z,95185.5
2018-09-24T08:45:26.315Z,95285
2018-09-24T08:50:22.180Z,95177.4
2018-09-24T08:55:18.241Z,95278.8
2018-09-24T09:00:14.492Z,95178.9
2018-09-24T09:05:10.494Z,95164.7
2018-09-24T09:10:06.439Z,95199.1
2018-09-24T09:15:02.394Z,95160.1
2018-09-24T09:19:58.066Z,95149.7
2018-09-24T09:24:54.250Z,95245.9
2018-09-24T09:29:50.211Z,95250.1
2018-09-24T09:34:45.826Z,95150.8
2018-09-24T09:39:41.291Z,95244.1
2018-09-24T09:44:37.232Z,95344.3
2018-09-24T09:49:33.167Z,95237.2
2018-09-24T09:54:29.387Z,95266.2
2018-09-24T09:59:25.724Z,95220.8
2018-09-24T10:04:22.007Z,95211.8
2018-09-24T10:09:18.275Z,95214.6
2018-09-24T10:14:14.390Z,95209
2018-09-24T10:19:10.959Z,95111.5
2018-09-24T10:24:06.486Z,95102
2018-09-24T10:29:02.429Z,95195.1
2018-09-24T10:33:58.387Z,95193.6
2018-09-24T10:38:54.122Z,95183.2
2018-09-24T10:43:50.111Z,95178.7
2018-09-24T10:48:46.284Z,95187.4
2018-09-24T10:53:42.089Z,95181.3
2018-09-24T10:58:38.581Z,95175.6
2018-09-24T11:03:34.491Z,95172.3
2018-09-24T11:08:30.726Z,95178.2
2018-09-24T11:13:26.773Z,95074.8
2018-09-24T11:18:22.581Z,95182.5
2018-09-24T11:23:18.532Z,95174.7
2018-09-24T11:28:14.957Z,95099.6
2018-09-24T11:33:10.872Z,95184.5
2018-09-24T11:38:06.797Z,95204.8
2018-09-24T11:43:02.614Z,95210.4
2018-09-24T11:47:58.622Z,95222.7
2018-09-24T11:52:54.453Z,95147.6
2018-09-24T11:57:50.616Z,95305.7
2018-09-24T12:02:45.969Z,95198.9
2018-09-24T12:07:41.843Z,95308.6
2018-09-24T12:12:38.013Z,95329.6
2018-09-24T12:17:33.569Z,95275
2018-09-24T12:22:29.434Z,95396
2018-09-24T12:27:25.001Z,95394.1
2018-09-24T12:32:20.784Z,95430.2
2018-09-24T12:37:16.538Z,95478.7
2018-09-24T12:42:12.221Z,95375.4
2018-09-24T12:47:07.993Z,95413
2018-09-24T12:52:03.859Z,95366.1
2018-09-24T12:57:00.071Z,95528.5
2018-09-24T13:01:55.829Z,95565.1
2018-09-24T13:06:50.193Z,95457.7
2018-09-24T13:11:45.706Z,95499.4
2018-09-24T13:16:41.113Z,95488.8
2018-09-24T13:21:36.805Z,95501.4
2018-09-24T13:26:32.914Z,95509.4
2018-09-24T13:31:28.166Z,95612.9
2018-09-24T13:36:23.377Z,95512.1
2018-09-24T13:41:18.890Z,95669.8
2018-09-24T13:46:14.804Z,95654
2018-09-24T13:51:10.485Z,95658.4
2018-09-24T13:56:06.174Z,95645.8
2018-09-24T14:01:01.582Z,95756.6
2018-09-24T14:05:57.557Z,95766.7
2018-09-24T14:10:53.520Z,95804.1
2018-09-24T14:15:49.007Z,95797.9
2018-09-24T14:20:44.441Z,95784.3
2018-09-24T14:25:40.349Z,95768.4
2018-09-24T14:30:36.097Z,95799.4
2018-09-24T14:35:32.014Z,95703.1
2018-09-24T14:40:27.727Z,95716
2018-09-24T14:45:23.501Z,95728.2
2018-09-24T14:50:19.182Z,95727.8
2018-09-24T14:55:15.116Z,95756.4
2018-09-24T15:00:10.657Z,95832.9
2018-09-24T15:05:06.195Z,95746.3
2018-09-24T15:10:01.668Z,95761.3
2018-09-24T15:14:57.414Z,95797.6
2018-09-24T15:19:53.305Z,95807.1
2018-09-24T15:24:48.830Z,95801.8
2018-09-24T15:29:44.760Z,95687.2
2018-09-24T15:34:40.495Z,95809.1
2018-09-24T15:39:36.359Z,95824.1
2018-09-24T15:44:31.935Z,95818.5
2018-09-24T15:49:27.739Z,95838.7
2018-09-24T15:54:24.931Z,95861.4
2018-09-24T15:59:19.585Z,95762.8
2018-09-24T16:04:15.483Z,95790.8
2018-09-24T16:09:11.120Z,95881.2
2018-09-24T16:14:06.907Z,95893.1
2018-09-24T16:19:03.446Z,95798.4
2018-09-24T16:24:00.046Z,95919.6
2018-09-24T16:28:55.925Z,95925.9
2018-09-24T16:33:52.841Z,95929.7
2018-09-24T16:38:49.468Z,95821.5
2018-09-24T16:43:44.508Z,95849.5
2018-09-24T16:48:40.369Z,95836.2
2018-09-24T16:53:35.863Z,95852.2
2018-09-24T16:58:31.789Z,95968.1
2018-09-24T17:03:27.926Z,95984
2018-09-24T17:08:23.476Z,95982.7
2018-09-24T17:13:19.238Z,95997
2018-09-24T17:18:14.959Z,95926.4
2018-09-24T17:23:11.191Z,96028.5
2018-09-24T17:28:06.972Z,95921.7
2018-09-24T17:33:02.715Z,95920.6
2018-09-24T17:37:58.593Z,96028.7
2018-09-24T17:42:54.383Z,96038.6
2018-09-24T17:47:50.163Z,95933.7
2018-09-24T17:52:45.893Z,95932.2
2018-09-24T17:57:41.766Z,96052
2018-09-24T18:02:37.299Z,96074
2018-09-24T18:07:33.113Z,96078.2
2018-09-24T18:12:28.993Z,95983.2
2018-09-24T18:17:24.581Z,96107.6
2018-09-24T18:22:20.302Z,96111.4
2018-09-24T18:27:16.129Z,96127.4
2018-09-24T18:32:11.973Z,96142
2018-09-24T18:37:07.563Z,96057
2018-09-24T18:42:02.933Z,96047.5
2018-09-24T18:46:58.452Z,96318.8
2018-09-24T18:51:53.743Z,96162.5
2018-09-24T18:56:49.582Z,96164.6
2018-09-24T19:01:45.527Z,96166
2018-09-24T19:06:41.195Z,96106.8
2018-09-24T19:11:37.064Z,96207.6
2018-09-24T19:16:32.315Z,96201.7
2018-09-24T19:21:28.070Z,96086.2
2018-09-24T19:26:23.599Z,96090.7
2018-09-24T19:31:19.166Z,96210
2018-09-24T19:36:14.988Z,96101.9
2018-09-24T19:41:10.645Z,96121.2
2018-09-24T19:46:06.289Z,96107.8
2018-09-24T19:51:01.830Z,96219.4
2018-09-24T19:55:57.403Z,96198.2
2018-09-24T20:00:53.922Z,96229.1
2018-09-24T20:05:49.550Z,96125.8
2018-09-24T20:10:44.902Z,96257.9
2018-09-24T20:15:40.393Z,96257.8
2018-09-24T20:20:36.066Z,96262.5
2018-09-24T20:25:31.635Z,96264.5
2018-09-24T20:30:27.920Z,96263.7
2018-09-24T20:35:23.681Z,96424.6
2018-09-24T20:40:19.265Z,96429.9
2018-09-24T20:45:14.847Z,96334.1
2018-09-24T20:50:10.638Z,96266.1
2018-09-24T20:55:06.484Z,96182.3
2018-09-24T21:00:02.537Z,96088
2018-09-24T21:04:57.876Z,96188.2
2018-09-24T21:09:53.572Z,96179.7
2018-09-24T21:14:49.165Z,96193.1
2018-09-24T21:19:44.682Z,96202.9
2018-09-24T21:24:40.529Z,96196
2018-09-24T21:29:35.731Z,96205.9
2018-09-24T21:34:30.871Z,96214.4
2018-09-24T21:39:26.401Z,96200.5
2018-09-24T21:44:21.853Z,96197.9
2018-09-24T21:49:17.272Z,96325.9
2018-09-24T21:54:12.738Z,96204.9
2018-09-24T21:59:08.929Z,96336.3
2018-09-24T22:04:04.552Z,96223.3
2018-09-24T22:09:00.414Z,96216.5
2018-09-24T22:13:55.992Z,96339.5
2018-09-24T22:18:51.631Z,96217.6
2018-09-24T22:23:47.379Z,96227
2018-09-24T22:28:43.419Z,96348.9
2018-09-24T22:33:39.077Z,96095.2
2018-09-24T22:38:34.916Z,96235.6
2018-09-24T22:43:30.751Z,96235.8
2018-09-24T22:48:26.296Z,96243.1
2018-09-24T22:53:21.837Z,96250.5
2018-09-24T22:58:17.931Z,96247.4
2018-09-24T23:03:13.637Z,96244.5
2018-09-24T23:08:09.418Z,96335.8
2018-09-24T23:13:05.143Z,96256.6
2018-09-24T23:18:01.198Z,96274.4
2018-09-24T23:22:57.111Z,96401.4
2018-09-24T23:27:52.921Z,96410.2
2018-09-24T23:32:48.554Z,96286
2018-09-24T23:37:44.259Z,96279.3
2018-09-24T23:42:39.901Z,96403.2
2018-09-24T23:47:35.609Z,96276.9
2018-09-24T23:52:31.350Z,96417.2
2018-09-24T23:57:26.896Z,96420.3
